createdAt,value
2016-07-02T00:00:53.252Z,99.99
2016-07-02T00:01:53.217Z,99.99
2016-07-02T00:02:53.225Z,99.99
2016-07-02T00:03:53.231Z,99.99
2016-07-02T00:04:53.226Z,99.99
2016-07-02T00:05:53.231Z,99.99
2016-07-02T00:06:53.240Z,99.99
2016-07-02T00:07:53.188Z,99.99
2016-07-02T00:08:53.236Z,99.99
2016-07-02T00:09:53.189Z,99.99
2016-07-02T00:10:53.234Z,99.99
2016-07-02T00:11:53.234Z,99.99
2016-07-02T00:12:53.249Z,99.99
2016-07-02T00:13:53.181Z,99.99
2016-07-02T00:14:53.250Z,99.99
2016-07-02T00:15:53.177Z,99.99
2016-07-02T00:16:53.247Z,99.99
2016-07-02T00:17:53.213Z,99.99
2016-07-02T00:18:53.257Z,99.99
2016-07-02T00:19:53.280Z,99.99
2016-07-02T00:20:53.259Z,99.99
2016-07-02T00:21:53.188Z,99.99
2016-07-02T00:22:53.253Z,99.99
2016-07-02T00:23:53.272Z,99.99
2016-07-02T00:24:53.193Z,99.99
2016-07-02T00:25:53.230Z,99.99
2016-07-02T00:26:53.193Z,99.99
2016-07-02T00:27:53.307Z,99.99
2016-07-02T00:28:53.249Z,99.99
2016-07-02T00:29:53.238Z,99.99
2016-07-02T00:30:53.293Z,99.99
2016-07-02T00:31:53.209Z,99.99
2016-07-02T00:32:53.216Z,99.99
2016-07-02T00:33:53.283Z,99.99
2016-07-02T00:34:53.221Z,99.99
2016-07-02T00:35:53.302Z,99.99
2016-07-02T00:36:53.303Z,99.99
2016-07-02T00:37:53.297Z,99.99
2016-07-02T00:38:53.291Z,99.99
2016-07-02T00:39:53.299Z,99.99
2016-07-02T00:40:53.227Z,99.99
2016-07-02T00:41:53.306Z,99.99
2016-07-02T00:42:53.277Z,99.99
2016-07-02T00:43:53.308Z,99.99
2016-07-02T00:44:53.239Z,99.99
2016-07-02T00:45:53.321Z,99.99
2016-07-02T00:46:53.330Z,99.99
2016-07-02T00:47:53.310Z,99.99
2016-07-02T00:48:53.332Z,99.99
2016-07-02T00:49:53.253Z,99.99
2016-07-02T00:50:53.340Z,99.99
2016-07-02T00:51:53.249Z,99.99
2016-07-02T00:52:53.313Z,99.99
2016-07-02T00:53:53.291Z,99.99
2016-07-02T00:54:53.271Z,99.99
2016-07-02T00:55:53.266Z,99.99
2016-07-02T00:56:53.305Z,99.99
2016-07-02T00:57:53.338Z,99.99
2016-07-02T00:58:53.346Z,99.99
2016-07-02T00:59:53.345Z,99.99
2016-07-02T01:00:53.349Z,99.99
2016-07-02T01:01:53.287Z,99.99
2016-07-02T01:02:53.357Z,99.99
2016-07-02T01:03:53.324Z,99.99
2016-07-02T01:04:53.370Z,99.99
2016-07-02T01:05:53.324Z,99.99
2016-07-02T01:06:53.371Z,99.99
2016-07-02T01:07:53.375Z,99.99
2016-07-02T01:08:53.367Z,99.99
2016-07-02T01:09:53.336Z,99.99
2016-07-02T01:10:53.362Z,99.99
2016-07-02T01:11:53.374Z,99.99
2016-07-02T01:12:53.330Z,99.99
2016-07-02T01:13:53.310Z,99.99
2016-07-02T01:14:53.342Z,99.99
2016-07-02T01:15:53.402Z,99.99
2016-07-02T01:16:53.399Z,99.99
2016-07-02T01:17:53.349Z,99.99
2016-07-02T01:18:53.388Z,99.99
2016-07-02T01:19:53.421Z,99.99
2016-07-02T01:20:53.395Z,99.99
2016-07-02T01:21:53.372Z,99.99
2016-07-02T01:22:53.402Z,99.99
2016-07-02T01:23:53.334Z,99.99
2016-07-02T01:24:53.398Z,99.99
2016-07-02T01:25:53.407Z,99.99
2016-07-02T01:26:53.407Z,99.99
2016-07-02T01:27:53.334Z,99.99
2016-07-02T01:28:53.384Z,99.99
2016-07-02T01:29:53.416Z,99.99
2016-07-02T01:30:53.377Z,99.99
2016-07-02T01:31:53.347Z,99.99
2016-07-02T01:32:53.345Z,99.99
2016-07-02T01:33:53.376Z,99.99
2016-07-02T01:34:53.353Z,99.99
2016-07-02T01:35:53.358Z,99.99
2016-07-02T01:36:53.442Z,99.99
2016-07-02T01:37:53.399Z,99.99
2016-07-02T01:38:53.368Z,99.99
2016-07-02T01:39:53.437Z,99.99
2016-07-02T01:40:53.450Z,99.99
2016-07-02T01:41:53.366Z,99.99
2016-07-02T01:42:53.447Z,99.99
2016-07-02T01:43:53.395Z,99.99
2016-07-02T01:44:53.424Z,99.99
2016-07-02T01:45:53.455Z,99.99
2016-07-02T01:46:53.449Z,99.99
2016-07-02T01:47:53.405Z,99.99
2016-07-02T01:48:53.416Z,99.99
2016-07-02T01:49:53.453Z,99.99
2016-07-02T01:50:53.410Z,99.99
2016-07-02T01:51:53.471Z,99.99
2016-07-02T01:52:53.405Z,99.99
2016-07-02T01:53:53.472Z,99.99
2016-07-02T01:54:53.407Z,99.99
2016-07-02T01:55:53.469Z,99.99
2016-07-02T01:56:53.432Z,99.99
2016-07-02T01:57:53.453Z,99.99
2016-07-02T01:58:53.490Z,99.99
2016-07-02T01:59:53.492Z,99.99
2016-07-02T02:00:53.453Z,99.99
2016-07-02T02:01:53.490Z,99.99
2016-07-02T02:02:53.505Z,99.99
2016-07-02T02:03:53.505Z,99.99
2016-07-02T02:04:53.494Z,99.99
2016-07-02T02:05:53.424Z,99.99
2016-07-02T02:06:53.509Z,99.99
2016-07-02T02:07:53.439Z,99.99
2016-07-02T02:08:53.436Z,99.99
2016-07-02T02:09:53.447Z,99.99
2016-07-02T02:10:53.508Z,99.99
2016-07-02T02:11:53.475Z,99.99
2016-07-02T02:12:53.443Z,99.99
2016-07-02T02:13:53.439Z,99.99
2016-07-02T02:14:53.532Z,99.99
2016-07-02T02:15:53.520Z,99.99
2016-07-02T02:16:53.526Z,99.99
2016-07-02T02:17:53.490Z,99.99
2016-07-02T02:18:53.457Z,99.99
2016-07-02T02:19:53.512Z,99.99
2016-07-02T02:20:53.534Z,99.99
2016-07-02T02:21:53.561Z,99.99
2016-07-02T02:22:53.495Z,99.99
2016-07-02T02:23:53.507Z,99.99
2016-07-02T02:24:53.501Z,99.99
2016-07-02T02:25:53.550Z,99.99
2016-07-02T02:26:53.481Z,99.99
2016-07-02T02:27:53.506Z,99.99
2016-07-02T02:28:53.585Z,99.99
2016-07-02T02:29:53.557Z,99.99
2016-07-02T02:30:53.476Z,99.99
2016-07-02T02:31:53.561Z,99.99
2016-07-02T02:32:53.571Z,99.99
2016-07-02T02:33:53.493Z,99.99
2016-07-02T02:34:53.568Z,99.99
2016-07-02T02:35:53.522Z,99.99
2016-07-02T02:36:53.559Z,99.99
2016-07-02T02:37:53.537Z,99.99
2016-07-02T02:38:53.579Z,99.99
2016-07-02T02:39:53.545Z,99.99
2016-07-02T02:40:53.546Z,99.99
2016-07-02T02:41:53.537Z,99.99
2016-07-02T02:42:53.510Z,99.99
2016-07-02T02:43:53.588Z,99.99
2016-07-02T02:44:53.508Z,99.99
2016-07-02T02:45:53.519Z,99.99
2016-07-02T02:46:53.545Z,99.99
2016-07-02T02:47:53.523Z,99.99
2016-07-02T02:48:53.641Z,99.99
2016-07-02T02:49:53.597Z,99.99
2016-07-02T02:50:53.558Z,99.99
2016-07-02T02:51:53.525Z,99.99
2016-07-02T02:52:53.563Z,99.99
2016-07-02T02:53:53.612Z,99.99
2016-07-02T02:54:53.579Z,99.99
2016-07-02T02:55:53.544Z,99.99
2016-07-02T02:56:53.613Z,99.99
2016-07-02T02:57:53.564Z,99.99
2016-07-02T02:58:53.621Z,99.99
2016-07-02T02:59:53.637Z,99.99
2016-07-02T03:00:53.622Z,99.99
2016-07-02T03:01:53.542Z,99.99
2016-07-02T03:02:53.573Z,99.99
2016-07-02T03:03:53.624Z,99.99
2016-07-02T03:04:53.559Z,99.99
2016-07-02T03:05:53.632Z,99.99
2016-07-02T03:06:53.632Z,99.99
2016-07-02T03:07:53.556Z,99.99
2016-07-02T03:08:53.593Z,99.99
2016-07-02T03:09:53.640Z,99.99
2016-07-02T03:10:53.644Z,99.99
2016-07-02T03:11:53.576Z,99.99
2016-07-02T03:12:53.641Z,99.99
2016-07-02T03:13:53.582Z,99.99
2016-07-02T03:14:53.661Z,99.99
2016-07-02T03:15:53.652Z,99.99
2016-07-02T03:16:53.584Z,99.99
2016-07-02T03:17:53.673Z,99.99
2016-07-02T03:18:53.662Z,99.99
2016-07-02T03:19:53.664Z,99.99
2016-07-02T03:20:53.676Z,99.99
2016-07-02T03:21:53.652Z,99.99
2016-07-02T03:22:53.619Z,99.99
2016-07-02T03:23:53.687Z,99.99
2016-07-02T03:24:53.678Z,99.99
2016-07-02T03:25:53.681Z,99.99
2016-07-02T03:26:53.679Z,99.99
2016-07-02T03:27:53.610Z,99.99
2016-07-02T03:28:53.609Z,99.99
2016-07-02T03:29:53.681Z,99.99
2016-07-02T03:30:53.693Z,99.99
2016-07-02T03:31:53.684Z,99.99
2016-07-02T03:32:53.688Z,99.99
2016-07-02T03:33:53.618Z,99.99
2016-07-02T03:34:53.689Z,99.99
2016-07-02T03:35:53.697Z,99.99
2016-07-02T03:36:53.665Z,99.99
2016-07-02T03:37:53.699Z,99.99
2016-07-02T03:38:53.660Z,99.99
2016-07-02T03:39:53.703Z,99.99
2016-07-02T03:40:53.711Z,99.99
2016-07-02T03:41:53.676Z,99.99
2016-07-02T03:42:53.707Z,99.99
2016-07-02T03:43:53.662Z,99.99
2016-07-02T03:44:53.675Z,99.99
2016-07-02T03:45:53.645Z,99.99
2016-07-02T03:46:53.715Z,99.99
2016-07-02T03:47:53.648Z,99.99
2016-07-02T03:48:53.705Z,99.99
2016-07-02T03:49:53.697Z,99.99
2016-07-02T03:50:53.736Z,99.99
2016-07-02T03:51:53.733Z,99.99
2016-07-02T03:52:53.707Z,99.99
2016-07-02T03:53:53.673Z,99.99
2016-07-02T03:54:53.679Z,99.99
2016-07-02T03:55:53.714Z,99.99
2016-07-02T03:56:53.747Z,99.99
2016-07-02T03:57:53.750Z,99.99
2016-07-02T04:06:37.580Z,99.99
2016-07-02T04:07:37.510Z,99.99
2016-07-02T04:08:37.525Z,99.99
2016-07-02T04:09:37.512Z,99.99
2016-07-02T04:10:37.556Z,99.99
2016-07-02T04:11:37.593Z,99.99
2016-07-02T04:12:37.595Z,99.99
2016-07-02T04:13:37.611Z,99.99
2016-07-02T04:14:37.596Z,99.99
2016-07-02T04:15:37.527Z,99.99
2016-07-02T04:16:37.536Z,99.99
2016-07-02T04:17:37.637Z,99.99
2016-07-02T04:18:37.623Z,99.99
2016-07-02T04:19:37.562Z,99.99
2016-07-02T04:20:37.579Z,99.99
2016-07-02T04:21:37.626Z,99.99
2016-07-02T04:22:37.623Z,99.99
2016-07-02T04:23:37.625Z,99.99
2016-07-02T04:24:37.634Z,99.99
2016-07-02T04:25:37.586Z,99.99
2016-07-02T04:26:37.595Z,99.99
2016-07-02T04:27:37.637Z,99.99
2016-07-02T04:28:37.634Z,99.99
2016-07-02T04:29:37.640Z,99.99
2016-07-02T04:30:37.612Z,99.99
2016-07-02T04:31:37.574Z,99.99
2016-07-02T04:43:45.194Z,99.99
2016-07-02T04:44:45.113Z,99.99
2016-07-02T04:45:45.159Z,99.99
2016-07-02T04:46:45.197Z,99.99
2016-07-02T04:47:45.193Z,99.99
2016-07-02T04:48:45.181Z,99.99
2016-07-02T04:49:45.206Z,99.99
2016-07-02T04:50:45.206Z,99.99
2016-07-02T04:51:45.206Z,99.99
2016-07-02T04:52:45.139Z,99.99
2016-07-02T04:53:45.133Z,99.99
2016-07-02T04:54:45.142Z,99.99
2016-07-02T05:05:41.640Z,99.99
2016-07-02T05:06:41.694Z,99.99
2016-07-02T05:07:41.693Z,99.99
2016-07-02T05:08:41.620Z,99.99
2016-07-02T05:09:41.644Z,99.99
2016-07-02T05:10:41.621Z,99.99
2016-07-02T05:11:41.688Z,99.99
2016-07-02T05:12:41.698Z,99.99
2016-07-02T05:13:41.693Z,99.99
2016-07-02T05:14:41.692Z,99.99
2016-07-02T05:15:41.632Z,99.99
2016-07-02T05:16:41.704Z,99.99
2016-07-02T05:17:41.706Z,99.99
2016-07-02T05:18:41.703Z,99.99
2016-07-02T05:19:41.650Z,99.99
2016-07-02T05:20:41.710Z,99.99
2016-07-02T05:21:41.689Z,99.99
2016-07-02T05:22:41.652Z,99.99
2016-07-02T05:23:41.676Z,99.99
2016-07-02T05:24:41.688Z,99.99
2016-07-02T05:25:41.679Z,99.99
2016-07-02T05:26:41.653Z,99.99
2016-07-02T05:27:41.737Z,99.99
2016-07-02T05:28:41.771Z,99.99
2016-07-02T05:29:41.697Z,99.99
2016-07-02T05:30:41.691Z,99.99
2016-07-02T05:31:41.730Z,99.99
2016-07-02T05:32:41.743Z,99.99
2016-07-02T05:33:41.740Z,99.99
2016-07-02T05:34:41.743Z,99.99
2016-07-02T05:35:41.672Z,99.99
2016-07-02T05:36:41.678Z,99.99
2016-07-02T05:37:41.747Z,99.99
2016-07-02T05:38:41.690Z,99.99
2016-07-02T05:39:41.723Z,99.99
2016-07-02T05:40:41.726Z,99.99
2016-07-02T05:41:41.728Z,99.99
2016-07-02T05:42:41.691Z,99.99
2016-07-02T05:43:41.692Z,99.99
2016-07-02T05:44:41.742Z,99.99
2016-07-02T05:45:41.765Z,99.99
2016-07-02T05:46:41.716Z,99.99
2016-07-02T05:47:41.708Z,99.99
2016-07-02T05:48:41.771Z,99.99
2016-07-02T05:49:41.704Z,99.99
2016-07-02T05:50:41.794Z,99.99
2016-07-02T05:51:41.791Z,99.99
2016-07-02T05:52:41.806Z,99.99
2016-07-02T05:53:41.756Z,99.99
2016-07-02T05:54:41.760Z,99.99
2016-07-02T05:55:41.797Z,99.99
2016-07-02T05:56:41.802Z,99.99
2016-07-02T05:57:41.770Z,99.99
2016-07-02T05:58:41.796Z,99.99
2016-07-02T05:59:41.808Z,99.99
2016-07-02T06:00:41.810Z,99.99
2016-07-02T06:01:41.809Z,99.99
2016-07-02T06:02:41.769Z,99.99
2016-07-02T06:03:41.808Z,99.99
2016-07-02T06:04:41.923Z,99.99
2016-07-02T06:05:41.747Z,99.99
2016-07-02T06:06:41.784Z,99.99
2016-07-02T06:07:41.818Z,99.99
2016-07-02T06:08:41.893Z,99.99
2016-07-02T06:09:41.787Z,99.99
2016-07-02T06:10:41.782Z,99.99
2016-07-02T06:11:41.751Z,99.99
2016-07-02T06:12:41.822Z,99.99
2016-07-02T06:13:41.767Z,99.99
2016-07-02T06:14:41.820Z,99.99
2016-07-02T06:15:41.844Z,99.99
2016-07-02T06:16:41.835Z,99.99
2016-07-02T06:17:41.848Z,99.99
2016-07-02T06:18:41.838Z,99.99
2016-07-02T06:19:41.774Z,99.99
2016-07-02T06:20:41.847Z,99.99
2016-07-02T06:21:41.789Z,99.99
2016-07-02T06:22:41.845Z,99.99
2016-07-02T06:23:41.879Z,99.99
2016-07-02T06:24:41.884Z,99.99
2016-07-02T06:25:41.788Z,99.99
2016-07-02T06:26:41.785Z,99.99
2016-07-02T06:27:41.863Z,99.99
2016-07-02T06:28:41.814Z,99.99
2016-07-02T06:29:41.868Z,99.99
2016-07-02T06:30:41.871Z,99.99
2016-07-02T06:31:41.824Z,99.99
2016-07-02T06:32:41.869Z,99.99
2016-07-02T06:33:41.821Z,99.99
2016-07-02T06:34:41.874Z,99.99
2016-07-02T06:35:41.833Z,99.99
2016-07-02T06:36:41.811Z,99.99
2016-07-02T06:37:41.879Z,99.99
2016-07-02T06:38:41.813Z,99.99
2016-07-02T06:39:41.893Z,99.99
2016-07-02T06:40:41.907Z,99.99
2016-07-02T06:41:41.895Z,99.99
2016-07-02T06:42:41.902Z,99.99
2016-07-02T06:43:41.897Z,99.99
2016-07-02T06:44:41.860Z,99.99
2016-07-02T06:45:41.855Z,99.99
2016-07-02T06:46:41.899Z,99.99
2016-07-02T06:47:41.864Z,99.99
2016-07-02T06:48:41.844Z,99.99
2016-07-02T06:49:41.898Z,99.99
2016-07-02T06:50:41.871Z,99.99
2016-07-02T06:51:41.839Z,99.99
2016-07-02T06:52:41.915Z,99.99
2016-07-02T06:53:41.869Z,99.99
2016-07-02T06:54:41.876Z,99.99
2016-07-02T06:55:41.893Z,99.99
2016-07-02T06:56:41.938Z,99.99
2016-07-02T06:57:41.952Z,99.99
2016-07-02T06:58:41.938Z,99.99
2016-07-02T06:59:41.892Z,99.99
2016-07-02T07:00:41.936Z,99.99
2016-07-02T07:01:41.896Z,99.99
2016-07-02T07:02:41.945Z,99.99
2016-07-02T07:03:41.953Z,99.99
2016-07-02T07:04:41.908Z,99.99
2016-07-02T07:05:41.914Z,99.99
2016-07-02T07:06:41.911Z,99.99
2016-07-02T07:07:41.947Z,99.99
2016-07-02T07:08:41.878Z,99.99
2016-07-02T07:09:41.908Z,99.99
2016-07-02T07:10:41.959Z,99.99
2016-07-02T07:11:41.971Z,99.99
2016-07-02T07:12:41.899Z,99.99
2016-07-02T07:13:41.971Z,99.99
2016-07-02T07:14:41.965Z,99.99
2016-07-02T07:15:41.928Z,99.99
2016-07-02T07:16:41.939Z,99.99
2016-07-02T07:17:41.930Z,99.99
2016-07-02T07:18:41.906Z,99.99
2016-07-02T07:19:41.993Z,99.99
2016-07-02T07:20:41.973Z,99.99
2016-07-02T07:21:41.978Z,99.99
2016-07-02T07:22:41.951Z,99.99
2016-07-02T07:23:41.998Z,99.99
2016-07-02T07:24:45.390Z,99.99
2016-07-02T07:25:42.020Z,99.99
2016-07-02T07:26:41.932Z,99.99
2016-07-02T07:27:42.012Z,99.99
2016-07-02T07:28:42.131Z,99.99
2016-07-02T07:29:41.995Z,99.99
2016-07-02T07:30:42.001Z,99.99
2016-07-02T07:31:42.007Z,99.99
2016-07-02T07:32:41.999Z,99.99
2016-07-02T07:33:41.977Z,99.99
2016-07-02T07:34:42.012Z,99.99
2016-07-02T07:35:42.009Z,99.99
2016-07-02T07:36:41.990Z,99.99
2016-07-02T07:37:42.021Z,99.99
2016-07-02T07:38:41.959Z,99.99
2016-07-02T07:39:41.989Z,99.99
2016-07-02T07:40:42.030Z,99.99
2016-07-02T07:41:42.038Z,99.99
2016-07-02T07:42:42.030Z,99.99
2016-07-02T07:43:42.040Z,99.99
2016-07-02T07:56:42.933Z,99.99
2016-07-02T07:56:49.978Z,99.99
2016-07-02T07:57:49.974Z,99.99
2016-07-02T07:58:49.964Z,99.99
2016-07-02T07:59:49.983Z,99.99
2016-07-02T08:00:49.912Z,99.99
2016-07-02T08:01:49.906Z,99.99
2016-07-02T08:02:49.990Z,99.99
2016-07-02T08:03:49.988Z,99.99
2016-07-02T08:04:49.955Z,99.99
2016-07-02T08:05:49.993Z,99.99
2016-07-02T08:06:49.999Z,99.99
2016-07-02T08:07:50.001Z,99.99
2016-07-02T08:08:49.990Z,99.99
2016-07-02T08:09:50.003Z,99.99
2016-07-02T08:10:50.001Z,99.99
2016-07-02T08:11:49.957Z,99.99
2016-07-02T08:12:49.926Z,99.99
2016-07-02T08:13:50.025Z,99.99
2016-07-02T08:14:50.015Z,99.99
2016-07-02T08:15:49.983Z,99.99
2016-07-02T08:16:49.960Z,99.99
2016-07-02T08:17:49.974Z,99.99
2016-07-02T08:18:49.945Z,99.99
2016-07-02T08:19:50.016Z,99.99
2016-07-02T08:20:49.978Z,99.99
2016-07-02T08:21:49.982Z,99.99
2016-07-02T08:22:50.032Z,99.99
2016-07-02T08:23:49.983Z,99.99
2016-07-02T08:24:50.026Z,99.99
2016-07-02T08:25:50.002Z,99.99
2016-07-02T08:26:49.999Z,99.99
2016-07-02T08:27:49.971Z,99.99
2016-07-02T08:40:50.999Z,99.99
2016-07-02T08:40:57.925Z,99.99
2016-07-02T08:41:57.874Z,99.99
2016-07-02T08:42:57.926Z,99.99
2016-07-02T08:43:57.853Z,99.99
2016-07-02T08:44:57.926Z,99.99
2016-07-02T08:45:57.877Z,99.81
2016-07-02T08:46:57.924Z,98.47
2016-07-02T08:47:57.934Z,98.62
2016-07-02T08:48:57.903Z,99.15
2016-07-02T08:49:57.932Z,98.47
2016-07-02T08:50:57.937Z,98.95
2016-07-02T08:51:57.946Z,98.86
2016-07-02T08:52:57.889Z,97.18
2016-07-02T08:53:57.921Z,96.7
2016-07-02T08:54:57.919Z,97.18
2016-07-02T08:55:57.952Z,97.28
2016-07-02T08:56:57.955Z,97.04
2016-07-02T08:57:57.969Z,95.89
2016-07-02T08:58:57.897Z,95.17
2016-07-02T08:59:57.886Z,94.89
2016-07-02T09:00:57.915Z,95.84
2016-07-02T09:01:57.895Z,95.31
2016-07-02T09:02:57.970Z,95.31
2016-07-02T09:03:57.897Z,96.08
2016-07-02T09:04:57.984Z,95.22
2016-07-02T09:05:57.977Z,94.93
2016-07-02T09:06:57.956Z,95.31
2016-07-02T09:07:57.955Z,94.17
2016-07-02T09:08:57.947Z,95.22
2016-07-02T09:09:57.947Z,94.69
2016-07-02T09:10:57.926Z,94.89
2016-07-02T09:11:58.142Z,95.36
2016-07-02T09:12:57.979Z,95.22
2016-07-02T09:13:57.972Z,93.59
2016-07-02T09:14:57.923Z,93.69
2016-07-02T09:15:58.002Z,93.54
2016-07-02T09:16:57.976Z,93.54
2016-07-02T09:17:57.966Z,93.93
2016-07-02T09:18:57.929Z,93.26
2016-07-02T09:19:57.971Z,92.87
2016-07-02T09:20:58.023Z,94.4
2016-07-02T09:21:58.041Z,95.17
2016-07-02T09:22:58.015Z,94.12
2016-07-02T09:23:58.138Z,94.21
2016-07-02T09:24:58.022Z,94.5
2016-07-02T09:25:58.125Z,95.07
2016-07-02T09:26:58.046Z,95.07
2016-07-02T09:27:58.039Z,96.13
2016-07-02T09:28:58.106Z,96.42
2016-07-02T09:29:58.000Z,97.47
2016-07-02T09:30:57.983Z,96.13
2016-07-02T09:31:58.121Z,95.65
2016-07-02T09:32:57.964Z,95.17
2016-07-02T09:33:58.003Z,93.35
2016-07-02T09:34:58.044Z,92.97
2016-07-02T09:35:58.085Z,92.68
2016-07-02T09:36:58.136Z,93.07
2016-07-02T09:37:58.023Z,92.97
2016-07-02T09:38:58.066Z,92.87
2016-07-02T09:39:58.072Z,92.49
2016-07-02T09:40:58.044Z,92.58
2016-07-02T09:41:58.057Z,93.54
2016-07-02T09:42:58.035Z,93.93
2016-07-02T09:43:57.995Z,94.12
2016-07-02T09:44:58.112Z,93.45
2016-07-02T09:45:58.024Z,93.45
2016-07-02T09:46:58.297Z,92.92
2016-07-02T09:47:58.040Z,91.96
2016-07-02T09:48:58.007Z,90.86
2016-07-02T09:49:58.002Z,90.86
2016-07-02T09:50:58.001Z,90.76
2016-07-02T09:51:58.043Z,91.39
2016-07-02T09:52:58.039Z,91.29
2016-07-02T09:53:58.121Z,89.28
2016-07-02T09:54:58.026Z,88.13
2016-07-02T09:55:58.090Z,88.8
2016-07-02T09:56:58.109Z,88.9
2016-07-02T09:57:58.112Z,88.8
2016-07-02T09:58:58.098Z,89.76
2016-07-02T09:59:58.116Z,89.61
2016-07-02T10:00:58.146Z,88.27
2016-07-02T10:01:58.070Z,88.08
2016-07-02T10:02:58.121Z,88.27
2016-07-02T10:05:12.966Z,87.98
2016-07-02T10:06:13.006Z,86.64
2016-07-02T10:07:13.012Z,85.3
2016-07-02T10:08:13.013Z,84.34
2016-07-02T10:09:13.041Z,83.19
2016-07-02T10:10:13.011Z,82.71
2016-07-02T10:11:12.953Z,82.81
2016-07-02T10:12:13.033Z,81.89
2016-07-02T10:13:13.035Z,81.79
2016-07-02T10:14:13.034Z,81.54
2016-07-02T10:15:13.084Z,81.98
2016-07-02T10:16:12.985Z,81.54
2016-07-02T10:17:13.031Z,80.34
2016-07-02T10:18:13.031Z,81.2
2016-07-02T10:19:13.032Z,80.73
2016-07-02T10:20:13.029Z,80.43
2016-07-02T10:21:13.052Z,79.52
2016-07-02T10:22:12.977Z,78.78
2016-07-02T10:23:13.060Z,78.3
2016-07-02T10:24:13.044Z,79.9
2016-07-02T10:25:13.054Z,79.71
2016-07-02T10:26:13.045Z,79.13
2016-07-02T10:27:13.059Z,80.38
2016-07-02T10:28:13.028Z,81.63
2016-07-02T10:29:13.177Z,79.32
2016-07-02T10:30:13.075Z,78.53
2016-07-02T10:31:12.997Z,78.53
2016-07-02T10:32:13.069Z,77.53
2016-07-02T10:33:13.071Z,78.11
2016-07-02T10:34:13.027Z,78.88
2016-07-02T10:35:13.087Z,78.02
2016-07-02T10:36:13.003Z,76.26
2016-07-02T10:37:13.079Z,76.23
2016-07-02T10:38:13.091Z,76.19
2016-07-02T10:39:13.007Z,76.54
2016-07-02T10:40:13.038Z,76.15
2016-07-02T10:41:13.089Z,75.42
2016-07-02T10:42:13.094Z,76.67
2016-07-02T10:43:13.043Z,76.57
2016-07-02T10:44:13.064Z,75.17
2016-07-02T10:45:13.101Z,73.99
2016-07-02T10:46:13.114Z,72.94
2016-07-02T10:47:13.099Z,72.03
2016-07-02T10:48:13.106Z,73.06
2016-07-02T10:49:13.122Z,73.88
2016-07-02T10:50:13.069Z,73.35
2016-07-02T10:51:13.036Z,73.79
2016-07-02T10:52:13.081Z,75.1
2016-07-02T10:53:13.116Z,74.71
2016-07-02T10:54:13.120Z,75
2016-07-02T10:55:13.125Z,74.55
2016-07-02T10:56:13.118Z,74.23
2016-07-02T10:57:13.125Z,75.77
2016-07-02T10:58:13.127Z,76.15
2016-07-02T10:59:13.133Z,74.9
2016-07-02T11:00:13.104Z,74.62
2016-07-02T11:01:13.134Z,73.08
2016-07-02T11:02:13.159Z,72.5
2016-07-02T11:03:13.148Z,72.18
2016-07-02T11:04:13.156Z,72.37
2016-07-02T11:05:13.106Z,72.37
2016-07-02T11:06:13.191Z,72.08
2016-07-02T11:07:13.131Z,72.81
2016-07-02T11:08:13.173Z,72.75
2016-07-02T11:09:13.161Z,73.3
2016-07-02T11:10:13.147Z,73.58
2016-07-02T11:11:13.085Z,73.58
2016-07-02T11:12:13.164Z,72.63
2016-07-02T11:13:13.115Z,73.3
2016-07-02T11:14:13.150Z,74.06
2016-07-02T11:15:13.177Z,73.77
2016-07-02T11:16:13.183Z,73.62
2016-07-02T11:17:13.104Z,73.75
2016-07-02T11:18:13.174Z,73.37
2016-07-02T11:19:13.227Z,74.13
2016-07-02T11:20:13.116Z,73.81
2016-07-02T11:21:13.181Z,73.72
2016-07-02T11:22:13.175Z,73.62
2016-07-02T11:23:13.139Z,74.33
2016-07-02T11:24:13.193Z,74.1
2016-07-02T11:25:13.175Z,74.87
2016-07-02T11:26:13.204Z,75.63
2016-07-02T11:27:13.131Z,76.5
2016-07-02T11:28:13.216Z,76.56
2016-07-02T11:29:13.204Z,76.94
2016-07-02T11:30:13.166Z,76.94
2016-07-02T11:31:13.190Z,77.42
2016-07-02T11:32:13.170Z,78.38
2016-07-02T11:33:13.223Z,77.51
2016-07-02T11:34:13.222Z,78
2016-07-02T11:35:13.153Z,79.3
2016-07-02T11:36:13.278Z,78.92
2016-07-02T11:41:31.984Z,78.15
2016-07-02T11:41:38.920Z,77.38
2016-07-02T11:42:38.870Z,77.67
2016-07-02T11:43:38.873Z,77.71
2016-07-02T11:44:38.918Z,77.9
2016-07-02T11:45:38.938Z,76.12
2016-07-02T11:46:38.939Z,76.02
2016-07-02T11:47:38.888Z,75.92
2016-07-02T11:48:38.857Z,75.63
2016-07-02T11:49:38.862Z,73.85
2016-07-02T11:50:38.868Z,73.98
2016-07-02T11:51:38.866Z,73.79
2016-07-02T11:52:38.991Z,72.58
2016-07-02T11:53:39.062Z,72.29
2016-07-02T11:54:38.950Z,72.77
2016-07-02T11:55:38.966Z,72.19
2016-07-02T11:56:38.886Z,70.68
2016-07-02T11:57:38.951Z,70.24
2016-07-02T11:58:38.881Z,71.17
2016-07-02T11:59:38.952Z,71.49
2016-07-02T12:00:38.973Z,73.15
2016-07-02T12:01:38.964Z,72.86
2016-07-02T12:02:38.889Z,72.77
2016-07-02T12:03:38.970Z,73.83
2016-07-02T12:04:38.979Z,74.69
2016-07-02T12:05:38.926Z,74.02
2016-07-02T12:06:39.002Z,72.23
2016-07-02T12:07:38.979Z,71.65
2016-07-02T12:08:38.982Z,73.47
2016-07-02T12:09:38.950Z,73.57
2016-07-02T12:10:38.985Z,73.19
2016-07-02T12:11:38.915Z,69.57
2016-07-02T12:12:38.984Z,67.29
2016-07-02T12:13:38.942Z,66.01
2016-07-02T12:14:38.954Z,64.05
2016-07-02T12:15:39.004Z,63.73
2016-07-02T12:16:38.940Z,62.96
2016-07-02T12:17:39.012Z,63.73
2016-07-02T12:18:38.936Z,63.57
2016-07-02T12:19:39.007Z,63.15
2016-07-02T12:20:39.031Z,63.09
2016-07-02T12:21:39.005Z,63.06
2016-07-02T12:22:39.031Z,63.35
2016-07-02T12:23:39.044Z,63.92
2016-07-02T12:24:39.044Z,63.73
2016-07-02T12:25:38.987Z,64.5
2016-07-02T12:26:39.042Z,65.88
2016-07-02T12:27:38.958Z,67.13
2016-07-02T12:28:39.063Z,68.09
2016-07-02T12:29:39.037Z,69.12
2016-07-02T12:30:39.006Z,68.83
2016-07-02T12:31:39.046Z,69.24
2016-07-02T12:32:38.981Z,69.56
2016-07-02T12:33:38.964Z,67.99
2016-07-02T12:34:39.063Z,66.61
2016-07-02T12:35:39.037Z,67.35
2016-07-02T12:36:39.011Z,66.97
2016-07-02T12:37:38.989Z,67.19
2016-07-02T12:38:39.027Z,67.1
2016-07-02T12:39:39.020Z,67.48
2016-07-02T12:40:39.065Z,68.02
2016-07-02T12:41:39.095Z,67.1
2016-07-02T12:42:39.095Z,66.71
2016-07-02T12:43:39.051Z,66.23
2016-07-02T12:44:39.090Z,65.78
2016-07-02T12:45:39.039Z,66.36
2016-07-02T12:46:39.072Z,68.35
2016-07-02T12:47:39.003Z,66.61
2016-07-02T12:48:39.087Z,65.05
2016-07-02T12:49:39.076Z,64.56
2016-07-02T12:50:39.138Z,64.08
2016-07-02T12:51:39.015Z,64.73
2016-07-02T12:52:39.032Z,63.02
2016-07-02T12:53:39.101Z,63.67
2016-07-02T12:54:39.021Z,63.09
2016-07-02T12:55:39.099Z,63.31
2016-07-02T12:56:39.128Z,63.57
2016-07-02T12:57:39.073Z,63.12
2016-07-02T12:58:39.038Z,61.9
2016-07-02T12:59:39.116Z,62.03
2016-07-02T13:00:39.111Z,61.55
2016-07-02T13:01:39.119Z,60.77
2016-07-02T13:02:39.050Z,62.35
2016-07-02T13:03:39.042Z,63.12
2016-07-02T13:04:39.094Z,62.26
2016-07-02T13:05:39.128Z,62.38
2016-07-02T13:06:39.127Z,63.22
2016-07-02T13:07:39.067Z,64.15
2016-07-02T13:08:39.058Z,63.22
2016-07-02T13:09:39.143Z,63.51
2016-07-02T13:10:39.157Z,63.67
2016-07-02T13:11:39.207Z,62.96
2016-07-02T13:12:39.105Z,62.99
2016-07-02T13:13:39.125Z,63.12
2016-07-02T13:14:39.075Z,63.86
2016-07-02T13:15:39.164Z,63.6
2016-07-02T13:16:39.147Z,62.41
2016-07-02T13:17:39.152Z,61.8
2016-07-02T13:18:39.092Z,63.15
2016-07-02T13:19:39.151Z,63.25
2016-07-02T13:20:39.162Z,64.92
2016-07-02T13:21:39.086Z,65.05
2016-07-02T13:22:39.144Z,69.15
2016-07-02T13:23:39.121Z,71.94
2016-07-02T13:24:39.093Z,72.67
2016-07-02T13:25:39.175Z,75.56
2016-07-02T13:26:39.181Z,77.88
2016-07-02T13:27:39.115Z,79.96
2016-07-02T13:28:39.166Z,81.1
2016-07-02T13:29:39.183Z,81.64
2016-07-02T13:30:39.134Z,81.97
2016-07-02T13:31:39.184Z,83.47
2016-07-02T13:32:39.156Z,84.67
2016-07-02T13:33:39.214Z,84.77
2016-07-02T13:34:39.202Z,85.63
2016-07-02T13:35:39.210Z,85.48
2016-07-02T13:36:39.216Z,84.71
2016-07-02T13:37:39.210Z,85.48
2016-07-02T13:38:39.182Z,85.82
2016-07-02T13:39:39.224Z,85.53
2016-07-02T13:40:39.212Z,84.61
2016-07-02T13:41:39.144Z,82.68
2016-07-02T13:42:39.216Z,81.86
2016-07-02T13:43:39.180Z,81.48
2016-07-02T13:44:39.237Z,80.22
2016-07-02T13:45:39.144Z,79.02
2016-07-02T13:46:39.215Z,78.34
2016-07-02T13:47:39.319Z,78.96
2016-07-02T13:48:39.160Z,78.15
2016-07-02T13:49:39.192Z,77.67